Time;durP1;ratioP1;P1;durP2;ratioP2;P2;SDS_P1;SDS_P2;PMS_P1;PMS_P2;Temp;Humidity;BMP_temperature;BMP_pressure;BME280_temperature;BME280_humidity;BME280_pressure;Samples;Min_cycle;Max_cycle;Signal;HPM_P1;HPM_P2
2023/04/05 00:01:25;;;;;;;8.98;4.05;;;3.50;99.90;;;;;;5133413;28;20864;-58
2023/04/05 00:03:56;;;;;;;9.95;4.47;;;3.50;99.90;;;;;;5133095;28;20035;-58
2023/04/05 00:06:25;;;;;;;8.88;4.45;;;3.50;99.90;;;;;;5132873;28;20044;-58
2023/04/05 00:08:58;;;;;;;8.73;4.05;;;3.40;99.90;;;;;;5133001;28;20066;-58
2023/04/05 00:11:29;;;;;;;9.50;3.90;;;3.30;99.90;;;;;;5132949;28;20039;-58
2023/04/05 00:13:56;;;;;;;9.88;4.10;;;3.30;99.90;;;;;;5132994;28;20035;-58
2023/04/05 00:16:21;;;;;;;6.20;3.80;;;3.20;99.90;;;;;;5132510;28;20044;-58
2023/04/05 00:18:53;;;;;;;8.05;4.20;;;3.20;99.90;;;;;;5132303;28;20076;-58
2023/04/05 00:21:21;;;;;;;7.88;3.97;;;3.00;99.90;;;;;;5132734;28;20084;-58
2023/04/05 00:23:51;;;;;;;6.47;3.83;;;3.10;99.90;;;;;;5132920;28;20035;-58
2023/04/05 00:26:17;;;;;;;12.88;4.55;;;3.20;99.90;;;;;;5132857;28;20042;-58
2023/04/05 00:28:43;;;;;;;7.05;4.35;;;3.10;99.90;;;;;;5133058;28;20042;-58
2023/04/05 00:31:09;;;;;;;8.80;4.60;;;3.10;99.90;;;;;;5132932;28;20118;-58
2023/04/05 00:33:34;;;;;;;11.60;5.25;;;3.00;99.90;;;;;;5114689;28;20464;-58
2023/04/05 00:36:14;;;;;;;5.40;3.85;;;2.80;99.90;;;;;;5132846;28;20118;-58
2023/04/05 00:38:41;;;;;;;9.50;4.55;;;2.90;99.90;;;;;;5134570;27;20423;-58
2023/04/05 00:41:08;;;;;;;6.78;4.22;;;2.90;99.90;;;;;;5136536;27;20039;-58
2023/04/05 00:43:34;;;;;;;7.47;4.43;;;2.90;99.90;;;;;;5136339;27;20042;-58
2023/04/05 00:46:00;;;;;;;7.00;4.07;;;2.80;99.90;;;;;;5118231;27;20031;-58
2023/04/05 00:48:27;;;;;;;12.00;4.78;;;2.80;99.90;;;;;;5136198;27;20040;-58
2023/04/05 00:50:53;;;;;;;9.45;4.45;;;2.70;99.90;;;;;;5135940;27;20042;-58
2023/04/05 00:53:19;;;;;;;7.85;4.70;;;2.70;99.90;;;;;;5135995;27;20047;-58
2023/04/05 00:55:50;;;;;;;10.57;4.63;;;2.70;99.90;;;;;;5136113;27;20039;-58
2023/04/05 00:58:18;;;;;;;7.38;4.35;;;2.60;99.90;;;;;;5135998;27;20039;-58
2023/04/05 01:00:58;;;;;;;9.75;5.35;;;2.70;99.90;;;;;;5136140;27;20393;-57
2023/04/05 01:03:27;;;;;;;10.10;5.03;;;2.60;99.90;;;;;;5135945;27;20063;-58
2023/04/05 01:06:16;;;;;;;8.15;4.85;;;2.50;99.90;;;;;;5117304;27;20050;-58
2023/04/05 01:08:50;;;;;;;14.85;5.85;;;2.60;99.90;;;;;;5135968;27;20091;-58
2023/04/05 01:11:17;;;;;;;9.73;5.00;;;2.60;99.90;;;;;;5135639;27;20493;-58
2023/04/05 01:13:45;;;;;;;9.10;5.32;;;2.50;99.90;;;;;;5135891;27;20043;-58
2023/04/05 01:16:10;;;;;;;9.93;5.20;;;2.60;99.90;;;;;;5135323;27;20386;-58
2023/04/05 01:18:36;;;;;;;8.68;4.63;;;2.70;99.90;;;;;;5135255;27;20046;-58
2023/04/05 01:21:17;;;;;;;9.13;5.38;;;2.70;99.90;;;;;;5135573;27;20072;-58
2023/04/05 01:23:47;;;;;;;10.88;5.70;;;2.60;99.90;;;;;;5135855;27;20389;-58
2023/04/05 01:26:45;;;;;;;7.55;4.25;;;2.50;99.90;;;;;;5135308;27;20031;-58
2023/04/05 01:29:42;;;;;;;10.20;5.10;;;2.50;99.90;;;;;;5116931;27;20084;-58
2023/04/05 01:32:23;;;;;;;9.90;5.35;;;2.50;99.90;;;;;;5031914;28;20502;-58
2023/04/05 01:35:00;;;;;;;8.32;4.97;;;2.30;99.90;;;;;;5031854;28;20069;-58
2023/04/05 01:37:30;;;;;;;8.80;5.10;;;2.40;99.90;;;;;;5031641;28;20444;-58
2023/04/05 01:39:56;;;;;;;9.88;5.82;;;2.30;99.90;;;;;;5031793;28;20076;-58
2023/04/05 01:42:24;;;;;;;11.20;5.78;;;2.40;99.90;;;;;;5031679;28;20427;-58
2023/04/05 01:44:54;;;;;;;12.30;5.82;;;2.20;99.90;;;;;;5015255;28;20438;-58
2023/04/05 01:47:20;;;;;;;10.20;5.90;;;2.10;99.90;;;;;;5031630;28;20049;-59
2023/04/05 01:49:46;;;;;;;12.18;6.30;;;2.10;99.90;;;;;;5031544;28;20053;-57
2023/04/05 01:52:12;;;;;;;16.65;6.82;;;2.00;99.90;;;;;;5031395;28;20044;-58
2023/04/05 01:54:37;;;;;;;13.05;7.57;;;2.00;99.90;;;;;;5031229;28;20041;-58
2023/04/05 01:57:04;;;;;;;13.40;7.25;;;2.00;99.90;;;;;;5031411;28;20483;-58
2023/04/05 01:59:30;;;;;;;13.10;6.10;;;2.00;99.90;;;;;;5031413;28;20099;-57
2023/04/05 02:01:56;;;;;;;15.18;5.90;;;2.00;99.90;;;;;;5015037;28;20471;-57
2023/04/05 02:04:21;;;;;;;10.65;6.28;;;2.10;99.90;;;;;;5031131;28;20076;-57
2023/04/05 02:06:47;;;;;;;9.95;5.88;;;2.00;99.90;;;;;;5014562;28;20053;-57
2023/04/05 02:09:13;;;;;;;13.65;6.30;;;2.10;99.90;;;;;;5114926;27;20130;-57
2023/04/05 02:11:38;;;;;;;11.57;6.03;;;2.00;99.90;;;;;;5134442;27;20039;-57
2023/04/05 02:14:04;;;;;;;10.45;6.00;;;2.00;99.90;;;;;;5134636;27;20475;-58
2023/04/05 02:16:32;;;;;;;11.45;6.05;;;1.90;99.90;;;;;;5134153;27;20116;-58
2023/04/05 02:18:58;;;;;;;11.20;5.53;;;1.90;99.90;;;;;;5134668;27;20047;-57
2023/04/05 02:21:25;;;;;;;9.25;5.28;;;1.90;99.90;;;;;;5115795;27;20039;-57
2023/04/05 02:23:51;;;;;;;10.73;5.45;;;1.90;99.90;;;;;;5115357;27;20055;-57
2023/04/05 02:26:17;;;;;;;10.82;5.43;;;1.90;99.90;;;;;;5134891;27;20078;-57
2023/04/05 02:28:43;;;;;;;9.27;5.45;;;1.80;99.90;;;;;;5133963;27;20488;-57
2023/04/05 02:31:12;;;;;;;12.27;5.72;;;1.90;99.90;;;;;;5134101;27;20075;-57
2023/04/05 02:33:38;;;;;;;9.93;5.80;;;1.80;99.90;;;;;;5133995;27;20389;-57
2023/04/05 02:36:08;;;;;;;11.40;5.57;;;1.70;99.90;;;;;;5134210;27;20042;-57
2023/04/05 02:38:34;;;;;;;10.23;5.70;;;1.60;99.90;;;;;;5134137;27;20046;-57
2023/04/05 02:41:00;;;;;;;8.70;5.45;;;1.60;99.90;;;;;;5133915;27;20031;-58
2023/04/05 02:43:26;;;;;;;10.25;5.63;;;1.50;99.90;;;;;;5134131;27;20106;-57
2023/04/05 02:45:51;;;;;;;12.65;6.00;;;1.50;99.90;;;;;;5115392;27;20035;-57
2023/04/05 02:48:17;;;;;;;11.15;5.78;;;1.50;99.90;;;;;;5133571;27;20076;-58
2023/04/05 02:50:50;;;;;;;8.90;5.68;;;1.50;99.90;;;;;;5133537;27;20536;-57
2023/04/05 02:53:17;;;;;;;11.32;6.22;;;1.40;99.90;;;;;;5133754;27;20110;-57
2023/04/05 02:55:50;;;;;;;10.02;6.38;;;1.50;99.90;;;;;;5133896;27;20051;-57
2023/04/05 02:58:16;;;;;;;11.15;6.28;;;1.50;99.90;;;;;;5115059;27;20046;-57
2023/04/05 03:00:49;;;;;;;14.00;6.70;;;1.50;99.90;;;;;;5132886;27;20035;-58
2023/04/05 03:03:18;;;;;;;12.27;6.20;;;1.50;99.90;;;;;;5133780;27;20038;-57
2023/04/05 03:05:47;;;;;;;10.30;6.40;;;1.40;99.90;;;;;;5133692;27;20056;-57
2023/04/05 03:08:17;;;;;;;11.70;6.72;;;1.40;99.90;;;;;;5133576;27;20039;-57
2023/04/05 03:10:44;;;;;;;21.55;7.00;;;1.40;99.90;;;;;;5115126;27;20424;-57
2023/04/05 03:13:09;;;;;;;14.88;7.55;;;1.40;99.90;;;;;;5133279;27;20041;-57
2023/04/05 03:15:35;;;;;;;16.17;8.65;;;1.30;99.90;;;;;;5132924;27;20134;-57
2023/04/05 03:18:01;;;;;;;13.07;7.38;;;1.30;99.90;;;;;;5133522;27;20068;-57
2023/04/05 03:20:26;;;;;;;14.80;8.27;;;1.30;99.90;;;;;;5133291;27;20039;-57
2023/04/05 03:22:52;;;;;;;16.30;9.02;;;1.30;99.90;;;;;;5132980;27;20031;-57
2023/04/05 03:25:18;;;;;;;14.85;8.88;;;1.20;99.90;;;;;;5133309;28;20078;-57
2023/04/05 03:27:44;;;;;;;17.67;8.40;;;1.20;99.90;;;;;;5133020;27;20038;-56
2023/04/05 03:30:10;;;;;;;17.63;8.68;;;1.20;99.90;;;;;;5133050;28;20427;-57
2023/04/05 03:32:36;;;;;;;16.75;9.57;;;1.10;99.90;;;;;;5132982;28;20039;-57
2023/04/05 03:35:01;;;;;;;15.23;8.45;;;1.10;99.90;;;;;;5132994;27;20047;-57
2023/04/05 03:37:27;;;;;;;15.27;9.02;;;1.10;99.90;;;;;;5133375;28;20381;-57
2023/04/05 03:39:53;;;;;;;14.70;8.40;;;1.10;99.90;;;;;;5132951;28;20088;-57
2023/04/05 03:42:18;;;;;;;17.45;8.90;;;1.10;99.90;;;;;;5114516;28;20062;-57
2023/04/05 03:44:44;;;;;;;16.00;9.20;;;1.00;99.90;;;;;;5114358;28;20042;-57
2023/04/05 03:47:10;;;;;;;14.25;8.88;;;1.00;99.90;;;;;;5133336;28;20042;-58
2023/04/05 03:49:35;;;;;;;17.42;9.02;;;1.00;99.90;;;;;;5132895;28;20475;-58
2023/04/05 03:52:01;;;;;;;15.40;9.23;;;0.90;99.90;;;;;;5132896;28;20042;-57
2023/04/05 03:54:26;;;;;;;17.20;9.15;;;0.90;99.90;;;;;;5133006;28;20035;-57
2023/04/05 03:56:52;;;;;;;15.57;9.50;;;1.00;99.90;;;;;;5133133;28;20039;-57
2023/04/05 03:59:18;;;;;;;15.68;9.25;;;0.90;99.90;;;;;;5133044;28;20039;-57
2023/04/05 04:01:43;;;;;;;30.50;10.07;;;0.90;99.90;;;;;;5132866;27;20050;-57
2023/04/05 04:04:10;;;;;;;17.23;10.32;;;1.00;99.90;;;;;;5132880;27;20106;-57
2023/04/05 04:06:36;;;;;;;21.95;9.55;;;1.00;99.90;;;;;;5132703;28;20039;-57
2023/04/05 04:09:04;;;;;;;16.02;9.18;;;1.10;99.90;;;;;;5114008;28;20054;-57
2023/04/05 04:11:30;;;;;;;16.02;9.85;;;1.10;99.90;;;;;;5114489;27;20058;-57
2023/04/05 04:13:55;;;;;;;16.10;9.35;;;1.10;99.90;;;;;;5135395;27;20441;-57
2023/04/05 04:16:21;;;;;;;15.38;9.18;;;1.10;99.90;;;;;;5136341;27;20047;-57
2023/04/05 04:18:47;;;;;;;14.05;8.70;;;1.10;99.90;;;;;;5118026;27;20054;-57
2023/04/05 04:21:15;;;;;;;12.85;8.88;;;1.10;99.90;;;;;;5118175;27;20039;-57
2023/04/05 04:23:44;;;;;;;15.88;8.77;;;1.10;99.90;;;;;;5101884;27;20134;-57
2023/04/05 04:26:10;;;;;;;19.17;9.02;;;1.10;99.90;;;;;;5136309;27;20047;-57
2023/04/05 04:28:38;;;;;;;14.77;8.82;;;1.10;99.90;;;;;;5136438;27;20054;-57
2023/04/05 04:31:04;;;;;;;17.90;9.77;;;1.20;99.90;;;;;;5117873;27;20039;-57
2023/04/05 04:33:30;;;;;;;19.58;8.90;;;1.10;99.90;;;;;;5117989;27;20449;-57
2023/04/05 04:35:55;;;;;;;13.88;8.45;;;1.20;99.90;;;;;;5117672;27;20405;-57
2023/04/05 04:38:24;;;;;;;16.83;9.15;;;1.10;99.90;;;;;;5136351;27;20073;-56
2023/04/05 04:40:52;;;;;;;14.75;9.35;;;1.10;99.90;;;;;;5135902;27;20100;-57
2023/04/05 04:43:18;;;;;;;17.08;9.05;;;1.20;99.90;;;;;;5136342;27;20060;-57
2023/04/05 04:45:49;;;;;;;18.10;8.75;;;1.00;99.90;;;;;;5135880;27;20039;-57
2023/04/05 04:48:15;;;;;;;19.88;10.00;;;1.10;99.90;;;;;;5136319;27;20039;-57
2023/04/05 04:50:45;;;;;;;13.15;8.90;;;1.00;99.90;;;;;;5136089;27;20489;-57
2023/04/05 04:53:12;;;;;;;17.52;9.55;;;1.10;99.90;;;;;;5117087;27;20043;-57
2023/04/05 04:55:41;;;;;;;16.45;9.77;;;1.10;99.90;;;;;;5136025;27;20039;-57
2023/04/05 04:58:11;;;;;;;18.77;11.02;;;1.20;99.90;;;;;;5135672;27;20042;-57
2023/04/05 05:00:43;;;;;;;15.38;9.63;;;1.10;99.90;;;;;;5117417;27;20039;-57
2023/04/05 05:03:12;;;;;;;15.32;10.50;;;1.10;99.90;;;;;;5117597;27;20050;-57
2023/04/05 05:05:48;;;;;;;17.02;10.48;;;1.20;99.90;;;;;;5135781;27;20416;-57
2023/04/05 05:08:15;;;;;;;17.45;10.50;;;1.20;99.90;;;;;;5117454;27;20051;-58
2023/04/05 05:10:41;;;;;;;15.93;10.27;;;1.30;99.90;;;;;;5135600;27;20035;-57
2023/04/05 05:13:07;;;;;;;15.18;10.45;;;1.20;99.90;;;;;;5135728;27;20031;-57
2023/04/05 05:15:33;;;;;;;22.17;11.55;;;1.30;99.90;;;;;;5135259;27;20054;-57
2023/04/05 05:17:58;;;;;;;17.58;11.75;;;1.30;99.90;;;;;;5135496;27;20046;-57
2023/04/05 05:20:26;;;;;;;19.17;11.60;;;1.30;99.90;;;;;;5135730;27;20039;-57
2023/04/05 05:22:51;;;;;;;19.17;12.02;;;1.40;99.90;;;;;;5135488;27;20427;-57
2023/04/05 05:25:17;;;;;;;16.90;11.80;;;1.50;99.90;;;;;;5116613;27;20039;-57
2023/04/05 05:27:43;;;;;;;17.05;11.35;;;1.50;99.90;;;;;;5135262;27;20046;-57
2023/04/05 05:30:09;;;;;;;18.90;12.38;;;1.70;99.90;;;;;;5135345;27;20091;-57
2023/04/05 05:32:35;;;;;;;17.65;12.38;;;1.70;99.90;;;;;;5135138;27;20043;-57
2023/04/05 05:35:00;;;;;;;18.48;11.93;;;1.70;99.90;;;;;;5135146;27;20039;-57
2023/04/05 05:37:31;;;;;;;18.70;12.13;;;1.70;99.90;;;;;;5135270;27;20042;-57
2023/04/05 05:39:56;;;;;;;18.08;11.68;;;1.80;99.90;;;;;;5116908;27;20372;-57
2023/04/05 05:42:22;;;;;;;16.48;11.93;;;2.00;99.90;;;;;;5135230;27;20035;-56
2023/04/05 05:44:48;;;;;;;19.05;11.27;;;2.20;99.90;;;;;;5135318;27;20088;-57
2023/04/05 05:47:14;;;;;;;21.65;12.48;;;2.40;99.90;;;;;;5116249;27;20058;-58
2023/04/05 05:49:39;;;;;;;20.52;11.95;;;2.50;99.90;;;;;;5134947;27;20035;-57
2023/04/05 05:52:05;;;;;;;16.40;11.48;;;2.70;99.90;;;;;;5135029;27;20092;-57
2023/04/05 05:54:31;;;;;;;19.10;12.23;;;2.80;99.90;;;;;;5134871;27;20066;-57
2023/04/05 05:56:57;;;;;;;18.35;11.30;;;3.00;99.90;;;;;;5134608;27;20088;-57
2023/04/05 05:59:23;;;;;;;17.83;11.45;;;3.10;99.90;;;;;;5134963;27;20388;-57
2023/04/05 06:01:50;;;;;;;22.92;11.45;;;3.40;99.90;;;;;;5134639;27;20038;-57
2023/04/05 06:04:16;;;;;;;19.85;10.88;;;3.60;99.90;;;;;;5134598;27;20050;-57
2023/04/05 06:06:42;;;;;;;18.55;11.57;;;3.80;99.90;;;;;;5098848;27;20039;-57
2023/04/05 06:09:09;;;;;;;17.88;11.27;;;3.90;99.90;;;;;;5116529;27;20045;-58
2023/04/05 06:11:35;;;;;;;18.65;11.65;;;4.00;99.90;;;;;;5134289;27;20035;-58
2023/04/05 06:14:01;;;;;;;16.98;11.07;;;4.20;99.90;;;;;;5134583;27;20035;-58
2023/04/05 06:16:28;;;;;;;18.70;11.13;;;4.30;99.90;;;;;;5134067;27;20047;-58
2023/04/05 06:18:54;;;;;;;17.05;10.13;;;4.50;99.90;;;;;;5134798;27;20043;-58
2023/04/05 06:21:20;;;;;;;16.38;10.98;;;4.60;99.90;;;;;;5134342;27;20035;-58
2023/04/05 06:23:46;;;;;;;17.70;11.13;;;4.60;99.90;;;;;;5134655;27;20103;-58
2023/04/05 06:26:21;;;;;;;20.70;10.27;;;4.70;99.90;;;;;;5134040;27;20038;-58
2023/04/05 06:28:48;;;;;;;17.98;10.77;;;4.80;99.90;;;;;;5134593;27;20039;-58
2023/04/05 06:31:15;;;;;;;17.15;11.07;;;5.00;99.90;;;;;;5134144;27;20519;-58
2023/04/05 06:33:41;;;;;;;19.60;11.40;;;5.20;99.90;;;;;;5133918;27;20481;-57
2023/04/05 06:36:07;;;;;;;20.15;10.68;;;5.20;99.90;;;;;;5133284;27;20083;-56
2023/04/05 06:38:33;;;;;;;17.67;11.20;;;5.30;99.90;;;;;;5134378;27;20423;-56
2023/04/05 06:40:59;;;;;;;23.10;11.75;;;5.50;99.90;;;;;;5114925;27;20043;-57
2023/04/05 06:43:25;;;;;;;15.48;10.60;;;5.80;99.90;;;;;;5134316;27;20031;-57
2023/04/05 06:45:50;;;;;;;17.25;9.80;;;5.90;99.90;;;;;;5133841;27;20039;-57
2023/04/05 06:48:16;;;;;;;12.95;9.32;;;6.10;99.90;;;;;;5115559;27;20508;-58
2023/04/05 06:50:41;;;;;;;17.95;9.77;;;6.50;99.90;;;;;;5134349;27;20108;-61
2023/04/05 06:53:07;;;;;;;19.70;9.32;;;6.70;99.90;;;;;;5134059;27;20039;-57
2023/04/05 06:55:33;;;;;;;13.15;8.93;;;6.90;99.90;;;;;;5133929;27;20545;-58
2023/04/05 06:57:59;;;;;;;15.77;9.32;;;7.10;99.90;;;;;;5134021;27;20039;-57
2023/04/05 07:00:24;;;;;;;18.08;9.85;;;7.20;99.90;;;;;;5133859;27;20039;-57
2023/04/05 07:02:50;;;;;;;13.60;8.68;;;7.30;99.90;;;;;;5114988;27;20047;-57
2023/04/05 07:05:16;;;;;;;16.15;10.00;;;7.50;99.90;;;;;;5133653;27;20053;-58
2023/04/05 07:07:44;;;;;;;12.20;8.95;;;7.90;99.90;;;;;;5134019;27;20516;-58
2023/04/05 07:10:10;;;;;;;16.38;8.38;;;8.10;99.90;;;;;;5133783;27;20074;-57
2023/04/05 07:12:36;;;;;;;13.43;8.43;;;8.40;99.90;;;;;;5133682;27;20857;-58
2023/04/05 07:15:03;;;;;;;17.90;9.18;;;8.80;99.90;;;;;;5133684;27;20423;-58
2023/04/05 07:17:29;;;;;;;16.13;8.02;;;9.10;99.90;;;;;;5133950;27;20118;-57
2023/04/05 07:19:54;;;;;;;15.75;8.35;;;9.10;99.90;;;;;;5133438;27;20172;-57
2023/04/05 07:22:20;;;;;;;12.82;8.93;;;9.30;99.90;;;;;;5133775;27;20038;-57
2023/04/05 07:24:45;;;;;;;14.75;8.82;;;9.60;99.90;;;;;;5133277;27;20075;-57
2023/04/05 07:27:11;;;;;;;13.73;8.55;;;9.90;99.90;;;;;;5133894;28;20031;-57
2023/04/05 07:29:41;;;;;;;11.27;7.88;;;9.80;99.90;;;;;;5133715;28;20046;-57
2023/04/05 07:32:07;;;;;;;10.95;8.13;;;9.90;99.90;;;;;;5139866;27;20099;-57
2023/04/05 07:34:33;;;;;;;11.10;7.85;;;10.20;99.90;;;;;;5135445;27;20039;-57
2023/04/05 07:36:59;;;;;;;10.23;7.90;;;10.40;99.90;;;;;;5153969;27;20047;-58
2023/04/05 07:39:25;;;;;;;12.18;8.02;;;10.40;99.90;;;;;;5135019;27;20134;-57
2023/04/05 07:41:51;;;;;;;13.32;8.88;;;10.70;99.90;;;;;;5153806;27;20063;-57
2023/04/05 07:44:17;;;;;;;10.55;8.07;;;10.80;99.90;;;;;;5135604;27;20109;-58
2023/04/05 07:46:45;;;;;;;13.40;8.13;;;10.90;99.90;;;;;;5154790;27;20039;-57
2023/04/05 07:49:11;;;;;;;15.38;7.82;;;11.10;99.90;;;;;;5158068;27;20463;-58
2023/04/05 07:51:37;;;;;;;13.52;8.65;;;11.30;99.90;;;;;;5158302;27;20066;-57
2023/04/05 07:54:06;;;;;;;9.40;7.63;;;11.40;99.90;;;;;;5158284;27;20101;-58
2023/04/05 07:56:32;;;;;;;10.20;7.53;;;11.40;99.90;;;;;;5158251;27;20035;-58
2023/04/05 07:58:58;;;;;;;7.93;6.43;;;11.70;99.90;;;;;;5158157;27;20041;-58
2023/04/05 08:01:27;;;;;;;11.57;7.32;;;11.90;99.90;;;;;;5157816;27;20038;-58
2023/04/05 08:03:53;;;;;;;8.38;6.68;;;12.20;98.60;;;;;;5137215;27;20035;-58
2023/04/05 08:06:19;;;;;;;7.75;6.90;;;11.90;98.40;;;;;;5137628;27;20373;-57
2023/04/05 08:08:46;;;;;;;10.65;7.45;;;11.70;98.70;;;;;;5156196;27;20038;-58
2023/04/05 08:11:12;;;;;;;9.23;6.30;;;11.90;99.00;;;;;;5158042;27;20035;-58
2023/04/05 08:13:40;;;;;;;9.75;7.18;;;11.80;98.20;;;;;;5157765;27;20070;-58
2023/04/05 08:16:09;;;;;;;10.40;6.32;;;12.10;98.50;;;;;;5135482;27;20059;-57
2023/04/05 08:18:36;;;;;;;9.93;6.07;;;12.00;98.40;;;;;;5136959;27;20035;-56
2023/04/05 08:21:01;;;;;;;9.00;6.45;;;12.20;97.90;;;;;;5137025;27;20031;-57
2023/04/05 08:23:27;;;;;;;8.45;5.45;;;12.20;98.00;;;;;;5134775;27;20130;-57
2023/04/05 08:25:53;;;;;;;10.80;6.10;;;12.30;97.60;;;;;;5134830;27;20560;-57
2023/04/05 08:28:19;;;;;;;7.93;5.57;;;12.50;97.50;;;;;;5135545;27;20050;-57
2023/04/05 08:30:45;;;;;;;9.70;5.57;;;12.60;96.50;;;;;;5135550;27;20114;-56
2023/04/05 08:33:11;;;;;;;9.70;6.15;;;12.60;97.20;;;;;;5123021;27;20036;-57
2023/04/05 08:35:37;;;;;;;10.13;6.10;;;12.60;96.50;;;;;;5115737;28;20050;-57
2023/04/05 08:38:06;;;;;;;7.88;5.28;;;12.70;97.10;;;;;;5129336;27;20056;-57
2023/04/05 08:40:43;;;;;;;9.18;5.22;;;12.80;96.30;;;;;;5135967;27;20381;-57
2023/04/05 08:43:22;;;;;;;6.97;5.53;;;13.00;96.20;;;;;;5136160;27;20110;-57
2023/04/05 08:45:51;;;;;;;8.70;5.65;;;13.30;96.50;;;;;;5135899;27;20066;-58
2023/04/05 08:48:18;;;;;;;7.53;5.32;;;13.20;96.20;;;;;;5135909;27;20492;-58
2023/04/05 08:50:54;;;;;;;8.07;4.78;;;13.80;94.50;;;;;;5135611;27;20050;-58
2023/04/05 08:53:21;;;;;;;7.47;3.67;;;13.30;93.60;;;;;;5136114;27;20049;-57
2023/04/05 08:55:54;;;;;;;8.85;4.68;;;13.60;93.50;;;;;;5136104;27;20038;-58
2023/04/05 08:58:23;;;;;;;8.07;4.65;;;13.90;93.80;;;;;;5135064;27;20031;-57
2023/04/05 09:00:54;;;;;;;10.00;4.65;;;13.80;93.50;;;;;;5135980;27;20031;-57
2023/04/05 09:03:35;;;;;;;6.80;4.75;;;13.90;94.50;;;;;;5135596;27;20043;-57
2023/04/05 09:06:06;;;;;;;8.48;5.10;;;13.90;93.80;;;;;;5136124;27;20070;-57
2023/04/05 09:08:31;;;;;;;6.05;4.80;;;13.90;93.90;;;;;;5135968;27;20031;-57
2023/04/05 09:10:58;;;;;;;7.05;4.90;;;14.10;92.90;;;;;;5135795;27;20361;-57
2023/04/05 09:13:23;;;;;;;9.27;4.22;;;14.40;93.50;;;;;;5135637;27;20095;-57
2023/04/05 09:15:49;;;;;;;6.38;4.93;;;14.60;92.90;;;;;;5144614;27;20051;-57
2023/04/05 09:18:15;;;;;;;5.70;3.90;;;14.50;92.80;;;;;;5156574;27;20467;-57
2023/04/05 09:20:41;;;;;;;7.20;5.32;;;14.70;92.40;;;;;;5156173;27;20027;-57
2023/04/05 09:23:07;;;;;;;6.70;4.40;;;14.20;92.50;;;;;;5156294;27;20062;-58
2023/04/05 09:25:42;;;;;;;6.30;4.70;;;14.20;92.90;;;;;;5155889;27;20440;-58
2023/04/05 09:28:11;;;;;;;7.97;4.55;;;14.70;93.70;;;;;;5137227;27;20434;-57
2023/04/05 09:30:37;;;;;;;6.10;4.55;;;14.70;92.20;;;;;;5155988;27;20091;-57
2023/04/05 09:33:06;;;;;;;9.88;4.85;;;14.70;92.50;;;;;;5136627;27;20438;-58
2023/04/05 09:35:32;;;;;;;8.35;4.93;;;14.50;92.40;;;;;;5155529;27;20548;-58
2023/04/05 09:38:00;;;;;;;7.00;4.07;;;14.60;92.20;;;;;;5155533;27;20031;-57
2023/04/05 09:40:47;;;;;;;6.65;3.58;;;14.30;91.10;;;;;;5155686;27;20038;-58
2023/04/05 09:43:33;;;;;;;6.43;4.35;;;14.40;90.60;;;;;;5155887;27;20035;-58
2023/04/05 09:45:59;;;;;;;5.88;3.60;;;13.90;90.20;;;;;;5155315;27;20434;-58
2023/04/05 09:48:50;;;;;;;7.18;3.67;;;14.20;90.20;;;;;;5155691;27;20031;-59
2023/04/05 09:51:17;;;;;;;4.25;3.40;;;13.90;90.10;;;;;;5155161;27;20046;-58
2023/04/05 09:54:02;;;;;;;4.63;3.35;;;13.80;90.50;;;;;;5155293;27;20121;-59
2023/04/05 09:56:30;;;;;;;5.57;3.53;;;13.80;90.90;;;;;;5155446;27;20035;-58
2023/04/05 09:59:06;;;;;;;4.83;3.43;;;14.20;91.00;;;;;;5155395;27;20121;-58
2023/04/05 10:01:32;;;;;;;5.85;3.63;;;14.20;90.60;;;;;;5155108;27;20027;-59
2023/04/05 10:03:59;;;;;;;8.27;3.63;;;13.90;90.90;;;;;;5136401;27;20035;-59
2023/04/05 10:06:41;;;;;;;6.03;4.55;;;13.90;91.00;;;;;;5155091;27;20042;-59
2023/04/05 10:09:08;;;;;;;4.32;3.15;;;14.00;90.60;;;;;;5154920;27;20476;-58
2023/04/05 10:11:36;;;;;;;7.15;3.88;;;14.00;90.70;;;;;;5154737;27;20054;-58
2023/04/05 10:14:06;;;;;;;5.00;3.40;;;14.10;90.80;;;;;;5136699;27;20047;-58
2023/04/05 10:16:37;;;;;;;5.28;2.67;;;13.80;91.10;;;;;;5154471;27;20138;-58
2023/04/05 10:19:05;;;;;;;5.65;3.13;;;14.10;91.00;;;;;;5154605;27;20035;-58
2023/04/05 10:21:35;;;;;;;4.22;2.97;;;14.00;91.00;;;;;;5154826;27;20042;-58
2023/04/05 10:24:13;;;;;;;7.25;4.00;;;14.00;90.90;;;;;;5154658;27;20427;-58
2023/04/05 10:26:53;;;;;;;7.03;3.23;;;14.10;90.00;;;;;;5154624;27;20031;-58
2023/04/05 10:29:25;;;;;;;7.10;3.17;;;14.40;91.10;;;;;;5154941;27;20267;-58
2023/04/05 10:32:05;;;;;;;10.38;4.18;;;14.40;89.80;;;;;;5118868;27;20045;-58
2023/04/05 10:34:59;;;;;;;7.30;3.67;;;14.20;90.10;;;;;;5135812;27;20049;-58
2023/04/05 10:37:47;;;;;;;6.30;3.85;;;14.30;90.60;;;;;;5154600;27;20031;-58
2023/04/05 10:40:14;;;;;;;6.85;4.20;;;14.20;89.80;;;;;;5135738;27;20035;-58
2023/04/05 10:42:44;;;;;;;5.88;3.25;;;14.30;90.60;;;;;;5135841;27;20597;-58
2023/04/05 10:45:14;;;;;;;6.90;4.97;;;14.50;90.40;;;;;;5135700;27;20511;-58
2023/04/05 10:47:48;;;;;;;7.53;4.80;;;14.40;86.70;;;;;;5154507;27;20038;-58
2023/04/05 10:50:22;;;;;;;6.55;4.28;;;14.50;88.30;;;;;;5154132;27;20087;-59
2023/04/05 10:52:48;;;;;;;5.53;4.40;;;14.40;88.20;;;;;;5154205;27;20121;-58
2023/04/05 10:55:15;;;;;;;12.07;5.20;;;14.50;89.40;;;;;;5153921;27;20396;-58
2023/04/05 10:57:43;;;;;;;9.90;5.50;;;14.10;86.30;;;;;;5134852;27;20042;-59
2023/04/05 11:00:10;;;;;;;9.77;4.47;;;14.00;88.70;;;;;;5135343;27;20523;-59
2023/04/05 11:02:36;;;;;;;9.07;4.80;;;14.00;89.20;;;;;;5135449;27;20045;-58
2023/04/05 11:05:03;;;;;;;5.75;4.65;;;14.00;88.00;;;;;;5135792;27;20098;-58
2023/04/05 11:07:43;;;;;;;7.18;3.97;;;13.80;89.30;;;;;;5153946;27;20038;-58
2023/04/05 11:10:16;;;;;;;8.45;4.47;;;13.90;89.00;;;;;;5154033;27;20074;-58
2023/04/05 11:12:45;;;;;;;5.55;4.32;;;14.10;87.70;;;;;;5154211;27;20142;-58
2023/04/05 11:15:26;;;;;;;8.40;4.45;;;14.10;89.00;;;;;;5153755;27;20043;-58
2023/04/05 11:18:16;;;;;;;6.97;4.10;;;13.90;87.10;;;;;;5153506;27;20121;-58
2023/04/05 11:20:43;;;;;;;;;;;14.10;87.30;;;;;;5154168;27;20468;-58
2023/04/05 11:23:11;;;;;;;6.35;4.38;;;14.30;88.50;;;;;;5153226;27;20352;-58
2023/04/05 11:25:39;;;;;;;5.70;3.88;;;14.30;88.90;;;;;;5135237;27;20038;-58
2023/04/05 11:28:05;;;;;;;6.00;4.40;;;14.30;87.80;;;;;;5153992;27;20159;-58
2023/04/05 11:30:57;;;;;;;6.95;4.45;;;14.40;87.60;;;;;;5135032;27;20283;-58
2023/04/05 11:33:53;;;;;;;6.50;4.10;;;14.70;90.10;;;;;;5153785;27;20059;-58
2023/04/05 11:36:35;;;;;;;6.03;4.35;;;14.90;89.20;;;;;;5153790;27;20051;-58
2023/04/05 11:39:21;;;;;;;4.43;3.83;;;15.10;89.50;;;;;;5134944;27;20035;-57
2023/04/05 11:42:11;;;;;;;10.75;4.50;;;15.40;89.20;;;;;;5134786;27;20043;-58
2023/04/05 11:44:51;;;;;;;4.70;3.57;;;15.20;87.50;;;;;;5153865;27;20493;-58
2023/04/05 11:47:20;;;;;;;6.18;4.10;;;15.40;88.60;;;;;;5153829;27;20118;-58
2023/04/05 11:49:48;;;;;;;;;;;15.10;85.60;;;;;;5153827;27;20392;-59
2023/04/05 11:52:20;;;;;;;7.40;3.90;;;15.40;86.80;;;;;;5134849;27;19918;-59
2023/04/05 11:54:47;;;;;;;6.63;4.32;;;15.80;88.80;;;;;;5153655;27;20134;-59
2023/04/05 11:57:17;;;;;;;7.20;4.60;;;15.80;85.70;;;;;;5135231;27;20046;-60
2023/04/05 11:59:43;;;;;;;6.30;4.00;;;15.80;86.10;;;;;;5153407;27;20035;-59
2023/04/05 12:02:09;;;;;;;6.72;3.88;;;15.60;85.20;;;;;;5134840;27;20056;-59
2023/04/05 12:04:36;;;;;;;7.55;4.03;;;15.80;87.80;;;;;;5140229;27;20129;-59
2023/04/05 12:07:17;;;;;;;6.18;4.32;;;15.40;84.40;;;;;;5132655;28;20039;-59
2023/04/05 12:10:09;;;;;;;5.70;3.95;;;15.70;84.70;;;;;;5132467;27;20122;-60
2023/04/05 12:12:40;;;;;;;5.32;3.88;;;15.70;84.90;;;;;;5132512;28;20080;-59
2023/04/05 12:15:08;;;;;;;3.78;3.17;;;15.80;85.70;;;;;;5132326;27;20138;-59
2023/04/05 12:17:53;;;;;;;4.93;3.67;;;16.00;84.20;;;;;;5114618;28;20035;-59
2023/04/05 12:20:23;;;;;;;8.43;4.32;;;15.90;85.00;;;;;;5132681;27;20039;-59
2023/04/05 12:22:51;;;;;;;7.43;3.83;;;15.50;85.80;;;;;;5132496;27;20489;-59
2023/04/05 12:25:18;;;;;;;9.73;3.80;;;15.70;84.60;;;;;;5132648;27;20096;-59
2023/04/05 12:27:44;;;;;;;7.80;4.10;;;15.40;84.60;;;;;;5132738;27;20275;-59
2023/04/05 12:30:16;;;;;;;5.85;3.95;;;15.60;82.20;;;;;;5132477;28;20114;-59
2023/04/05 12:33:10;;;;;;;5.68;3.97;;;15.40;83.70;;;;;;5132559;27;20084;-59
2023/04/05 12:35:38;;;;;;;5.40;3.72;;;16.10;86.90;;;;;;5135789;27;20117;-58
2023/04/05 12:38:04;;;;;;;5.32;3.60;;;15.80;84.30;;;;;;5117896;27;20072;-59
2023/04/05 12:40:33;;;;;;;6.53;4.15;;;15.70;84.10;;;;;;5136230;27;20508;-59
2023/04/05 12:43:07;;;;;;;8.40;3.80;;;15.50;84.70;;;;;;5136423;27;20039;-59
2023/04/05 12:45:40;;;;;;;4.90;3.63;;;15.40;84.90;;;;;;5135947;27;20039;-59
2023/04/05 12:48:12;;;;;;;7.03;3.78;;;15.10;84.60;;;;;;5135887;27;20039;-59
2023/04/05 12:50:50;;;;;;;5.75;3.58;;;15.20;84.00;;;;;;5135939;27;20050;-59
2023/04/05 12:53:27;;;;;;;8.25;4.07;;;15.40;84.60;;;;;;5136009;27;20388;-59
2023/04/05 12:56:00;;;;;;;6.60;3.90;;;15.60;86.60;;;;;;5135734;27;20043;-60